createdAt,value
2022-12-23T00:01:09.677Z,98.25
2022-12-23T00:03:41.869Z,93.78
2022-12-23T00:06:10.796Z,86.68
2022-12-23T00:08:38.479Z,84.27
2022-12-23T00:11:19.056Z,98.57
2022-12-23T00:13:48.485Z,104.68
2022-12-23T00:16:18.617Z,137.45
2022-12-23T00:18:48.092Z,108.25
2022-12-23T00:21:17.175Z,111.32
2022-12-23T00:23:46.358Z,114.00
2022-12-23T00:26:15.750Z,92.88
2022-12-23T00:28:49.196Z,94.10
2022-12-23T00:31:19.811Z,107.18
2022-12-23T00:33:48.553Z,94.47
2022-12-23T00:36:23.382Z,93.40
2022-12-23T00:38:52.625Z,88.57
2022-12-23T00:41:23.316Z,104.45
2022-12-23T00:43:57.341Z,98.28
2022-12-23T00:46:29.881Z,95.50
2022-12-23T00:48:59.039Z,96.72
2022-12-23T00:51:31.258Z,91.03
2022-12-23T00:54:01.143Z,97.38
2022-12-23T00:56:40.000Z,112.05
2022-12-23T00:59:09.468Z,101.38
2022-12-23T01:01:37.597Z,100.50
2022-12-23T01:04:04.799Z,91.05
2022-12-23T01:06:31.504Z,89.90
2022-12-23T01:08:58.194Z,98.82
2022-12-23T01:11:24.869Z,81.88
2022-12-23T01:13:51.559Z,81.47
2022-12-23T01:16:18.364Z,78.22
2022-12-23T01:18:46.436Z,81.75
2022-12-23T01:21:13.513Z,76.70
2022-12-23T01:23:40.203Z,72.65
2022-12-23T01:26:08.438Z,69.85
2022-12-23T01:28:35.811Z,70.80
2022-12-23T01:31:04.455Z,68.43
2022-12-23T01:33:42.998Z,66.97
2022-12-23T01:36:22.548Z,76.82
2022-12-23T01:38:49.977Z,66.38
2022-12-23T01:41:18.585Z,61.45
2022-12-23T01:46:35.569Z,68.25
2022-12-23T01:49:07.712Z,64.43
2022-12-23T01:51:36.910Z,69.07
2022-12-23T01:54:14.741Z,60.92
2022-12-23T01:56:41.417Z,61.97
2022-12-23T01:59:11.925Z,63.78
2022-12-23T02:01:38.724Z,62.78
2022-12-23T02:04:07.246Z,63.75
2022-12-23T02:06:37.690Z,69.10
2022-12-23T02:09:11.404Z,65.68
2022-12-23T02:12:04.352Z,64.72
2022-12-23T02:14:43.658Z,72.68
2022-12-23T02:17:20.244Z,58.60
2022-12-23T02:20:21.643Z,65.72
2022-12-23T02:23:12.469Z,63.40
2022-12-23T02:26:08.436Z,67.60
2022-12-23T02:29:06.727Z,58.10
2022-12-23T02:31:42.961Z,67.78
2022-12-23T02:34:15.899Z,60.92
2022-12-23T02:36:49.669Z,64.45
2022-12-23T02:39:22.110Z,62.40
2022-12-23T02:41:58.129Z,63.95
2022-12-23T02:44:31.551Z,61.08
2022-12-23T02:47:04.319Z,61.65
2022-12-23T02:49:33.772Z,71.47
2022-12-23T02:52:05.295Z,65.50
2022-12-23T02:54:37.004Z,63.17
2022-12-23T02:57:07.604Z,63.30
2022-12-23T02:59:39.089Z,67.25
2022-12-23T03:02:07.282Z,65.55
2022-12-23T03:04:34.038Z,62.15
2022-12-23T03:07:07.369Z,63.30
2022-12-23T03:09:44.802Z,61.53
2022-12-23T03:12:22.449Z,59.33
2022-12-23T03:15:15.070Z,70.97
2022-12-23T03:17:56.690Z,62.60
2022-12-23T03:20:28.873Z,62.88
2022-12-23T03:23:03.557Z,60.75
2022-12-23T03:25:35.905Z,59.28
2022-12-23T03:28:10.254Z,62.95
2022-12-23T03:30:40.409Z,63.72
2022-12-23T03:33:13.488Z,61.70
2022-12-23T03:35:44.288Z,68.47
2022-12-23T03:38:14.947Z,71.93
2022-12-23T03:40:45.026Z,62.85
2022-12-23T03:43:16.235Z,63.67
2022-12-23T03:45:53.256Z,60.42
2022-12-23T03:48:34.113Z,62.33
2022-12-23T03:51:04.812Z,58.30
2022-12-23T03:53:37.016Z,59.92
2022-12-23T03:56:12.577Z,60.33
2022-12-23T03:58:58.788Z,61.15
2022-12-23T04:01:33.523Z,67.57
2022-12-23T04:04:12.331Z,62.33
2022-12-23T04:06:47.775Z,63.67
2022-12-23T04:09:22.203Z,59.42
2022-12-23T04:11:54.856Z,57.38
2022-12-23T04:14:30.526Z,57.92
2022-12-23T04:16:58.022Z,56.40
2022-12-23T04:19:26.109Z,67.43
2022-12-23T04:21:54.053Z,65.10
2022-12-23T04:24:20.727Z,73.13
2022-12-23T04:26:47.361Z,66.18
2022-12-23T04:29:16.254Z,66.07
2022-12-23T04:31:42.923Z,66.55
2022-12-23T04:34:09.682Z,61.72
2022-12-23T04:36:37.695Z,69.82
2022-12-23T04:39:04.444Z,68.65
2022-12-23T04:41:31.186Z,66.25
2022-12-23T04:43:57.849Z,72.38
2022-12-23T04:46:24.613Z,71.63
2022-12-23T04:48:51.293Z,63.63
2022-12-23T04:51:18.016Z,64.75
2022-12-23T04:53:46.054Z,68.57
2022-12-23T04:56:12.800Z,65.93
2022-12-23T04:58:39.477Z,63.50
2022-12-23T05:01:08.809Z,65.30
2022-12-23T05:03:35.998Z,68.90
2022-12-23T05:06:02.938Z,57.45
2022-12-23T05:08:30.029Z,57.97
2022-12-23T05:10:58.269Z,57.45
2022-12-23T05:13:25.338Z,55.95
2022-12-23T05:15:53.744Z,54.38
2022-12-23T05:18:21.549Z,58.33
2022-12-23T05:20:49.040Z,58.95
2022-12-23T05:23:15.883Z,56.95
2022-12-23T05:25:42.588Z,57.25
2022-12-23T05:28:10.773Z,56.45
2022-12-23T05:30:37.512Z,60.90
2022-12-23T05:33:04.369Z,62.65
2022-12-23T05:35:31.085Z,54.17
2022-12-23T05:37:58.020Z,52.72
2022-12-23T05:40:29.501Z,63.72
2022-12-23T05:42:58.105Z,73.68
2022-12-23T05:45:26.299Z,63.42
2022-12-23T05:47:53.073Z,64.70
2022-12-23T05:50:19.688Z,57.83
2022-12-23T05:52:46.344Z,60.92
2022-12-23T05:55:12.988Z,66.55
2022-12-23T05:57:39.636Z,56.53
2022-12-23T06:00:07.625Z,57.08
2022-12-23T06:02:35.799Z,53.22
2022-12-23T06:05:02.646Z,52.70
2022-12-23T06:07:29.319Z,59.03
2022-12-23T06:09:55.976Z,58.20
2022-12-23T06:12:22.636Z,61.75
2022-12-23T06:14:49.325Z,63.10
2022-12-23T06:17:16.008Z,57.83
2022-12-23T06:19:44.011Z,60.50
2022-12-23T06:22:10.779Z,63.45
2022-12-23T06:24:37.453Z,59.13
2022-12-23T06:27:04.279Z,53.95
2022-12-23T06:29:33.263Z,55.47
2022-12-23T06:32:01.896Z,51.13
2022-12-23T06:34:33.714Z,51.10
2022-12-23T06:37:09.021Z,51.75
2022-12-23T06:39:38.801Z,54.17
2022-12-23T06:42:18.725Z,56.13
2022-12-23T06:45:05.909Z,52.63
2022-12-23T06:47:40.488Z,56.50
2022-12-23T06:50:35.402Z,54.90
2022-12-23T06:53:21.209Z,55.50
2022-12-23T06:56:12.413Z,60.92
2022-12-23T06:59:01.420Z,59.78
2022-12-23T09:06:36.756Z,65.53
2022-12-23T09:22:58.219Z,68.70
2022-12-23T19:15:20.031Z,21.73
2022-12-23T19:46:31.716Z,21.45
2022-12-23T19:49:51.382Z,25.08
2022-12-23T19:53:02.523Z,23.75
2022-12-23T19:55:50.938Z,18.73
2022-12-23T19:58:47.074Z,26.00
2022-12-23T20:02:02.429Z,27.35
2022-12-23T20:05:12.724Z,26.25
2022-12-23T20:08:29.722Z,24.42
2022-12-23T20:11:29.606Z,24.25
2022-12-23T20:17:54.265Z,18.73
2022-12-23T20:20:45.501Z,20.27
2022-12-23T20:26:47.945Z,23.58
2022-12-23T20:29:31.097Z,21.02
2022-12-23T20:36:16.792Z,22.75
2022-12-23T20:39:05.397Z,22.20
2022-12-23T20:41:50.202Z,23.20
2022-12-23T20:44:34.493Z,17.15
2022-12-23T20:51:06.907Z,18.35
2022-12-23T20:57:20.427Z,20.35
2022-12-23T20:59:49.929Z,21.95
2022-12-23T21:02:30.165Z,17.40
2022-12-23T21:05:48.155Z,25.00
2022-12-23T21:08:17.892Z,18.90
2022-12-23T21:10:58.187Z,18.35
2022-12-23T21:13:42.668Z,18.77
2022-12-23T21:16:11.985Z,18.10
2022-12-23T21:18:41.199Z,19.65
2022-12-23T21:21:18.632Z,18.65
2022-12-23T21:23:55.431Z,20.85
2022-12-23T21:26:31.145Z,17.23
2022-12-23T21:29:21.397Z,18.23
2022-12-23T21:31:58.262Z,18.77
2022-12-23T21:34:25.309Z,20.45
2022-12-23T21:37:01.895Z,19.90
2022-12-23T21:39:28.990Z,23.55
2022-12-23T21:42:01.011Z,24.25
2022-12-23T21:44:57.341Z,25.92
2022-12-23T21:48:23.322Z,30.85
2022-12-23T22:15:35.295Z,18.02
2022-12-23T22:18:46.193Z,16.02
2022-12-23T22:41:38.693Z,11.77
2022-12-23T22:44:10.413Z,13.75
2022-12-23T22:46:46.919Z,13.73
2022-12-23T22:52:28.200Z,11.85
2022-12-23T22:55:36.052Z,14.63
2022-12-23T22:58:38.815Z,11.15
2022-12-23T23:02:06.663Z,12.50
2022-12-23T23:08:07.687Z,10.05
2022-12-23T23:10:48.803Z,13.13
2022-12-23T23:13:34.404Z,8.88
2022-12-23T23:16:22.448Z,10.77
2022-12-23T23:19:06.656Z,8.25
2022-12-23T23:28:42.635Z,12.05
2022-12-23T23:34:33.356Z,10.15
2022-12-23T23:37:22.628Z,10.25
2022-12-23T23:40:23.264Z,11.60
2022-12-23T23:43:17.036Z,10.20
2022-12-23T23:46:10.956Z,7.93
2022-12-23T23:48:41.064Z,9.98
2022-12-23T23:51:13.772Z,10.35
2022-12-23T23:57:02.360Z,8.95
2022-12-23T23:59:49.649Z,10.05
